sensor_id;sensor_type;location;lat;lon;timestamp;pressure;altitude;pressure_sealevel;temperature;humidity
80798;BME280;70202;52.238;10.680;2023-06-24T00:00:18;101029.97;;;16.30;76.89
80798;BME280;70202;52.238;10.680;2023-06-24T00:01:19;101031.91;;;16.28;77.23
80798;BME280;70202;52.238;10.680;2023-06-24T00:02:19;101033.81;;;16.25;77.28
80798;BME280;70202;52.238;10.680;2023-06-24T00:03:24;101044.03;;;16.23;76.90
80798;BME280;70202;52.238;10.680;2023-06-24T00:04:24;101038.59;;;16.22;77.08
80798;BME280;70202;52.238;10.680;2023-06-24T00:05:24;101037.78;;;16.20;76.82
80798;BME280;70202;52.238;10.680;2023-06-24T00:06:25;101037.88;;;16.18;77.13
80798;BME280;70202;52.238;10.680;2023-06-24T00:07:26;101038.81;;;16.17;76.92
80798;BME280;70202;52.238;10.680;2023-06-24T00:08:26;101035.28;;;16.15;76.99
80798;BME280;70202;52.238;10.680;2023-06-24T00:09:34;101034.44;;;16.13;77.10
80798;BME280;70202;52.238;10.680;2023-06-24T00:10:34;101034.53;;;16.12;76.93
80798;BME280;70202;52.238;10.680;2023-06-24T00:11:34;101030.06;;;16.09;77.06
80798;BME280;70202;52.238;10.680;2023-06-24T00:12:35;101030.16;;;16.08;77.56
80798;BME280;70202;52.238;10.680;2023-06-24T00:13:35;101027.56;;;16.05;76.82
80798;BME280;70202;52.238;10.680;2023-06-24T00:14:36;101030.38;;;16.03;76.67
80798;BME280;70202;52.238;10.680;2023-06-24T00:15:37;101027.88;;;15.98;77.01
80798;BME280;70202;52.238;10.680;2023-06-24T00:16:41;101025.25;;;15.95;77.23
80798;BME280;70202;52.238;10.680;2023-06-24T00:17:41;101027.94;;;15.97;76.91
80798;BME280;70202;52.238;10.680;2023-06-24T00:18:42;101026.25;;;15.94;77.10
80798;BME280;70202;52.238;10.680;2023-06-24T00:19:42;101028.25;;;15.91;76.85
80798;BME280;70202;52.238;10.680;2023-06-24T00:20:44;101030.00;;;15.92;76.87
80798;BME280;70202;52.238;10.680;2023-06-24T00:21:44;101026.47;;;15.90;77.00
80798;BME280;70202;52.238;10.680;2023-06-24T00:22:45;101031.13;;;15.88;77.01
80798;BME280;70202;52.238;10.680;2023-06-24T00:23:48;101028.56;;;15.85;77.22
80798;BME280;70202;52.238;10.680;2023-06-24T00:24:49;101031.34;;;15.83;77.04
80798;BME280;70202;52.238;10.680;2023-06-24T00:25:54;101032.34;;;15.82;77.36
80798;BME280;70202;52.238;10.680;2023-06-24T00:26:56;101039.78;;;15.80;77.14
80798;BME280;70202;52.238;10.680;2023-06-24T00:27:56;101042.56;;;15.79;76.98
80798;BME280;70202;52.238;10.680;2023-06-24T00:28:56;101039.91;;;15.77;77.09
80798;BME280;70202;52.238;10.680;2023-06-24T00:29:57;101039.09;;;15.75;76.87
80798;BME280;70202;52.238;10.680;2023-06-24T00:30:57;101041.03;;;15.73;77.04
80798;BME280;70202;52.238;10.680;2023-06-24T00:31:57;101033.91;;;15.69;77.01
80798;BME280;70202;52.238;10.680;2023-06-24T00:32:58;101039.47;;;15.67;77.26
80798;BME280;70202;52.238;10.680;2023-06-24T00:33:58;101043.03;;;15.69;76.82
80798;BME280;70202;52.238;10.680;2023-06-24T00:34:58;101040.38;;;15.68;76.85
80798;BME280;70202;52.238;10.680;2023-06-24T00:36:00;101048.66;;;15.66;77.23
80798;BME280;70202;52.238;10.680;2023-06-24T00:37:00;101024.44;;;15.56;77.56
80798;BME280;70202;52.238;10.680;2023-06-24T00:38:03;101039.63;;;15.64;77.16
80798;BME280;70202;52.238;10.680;2023-06-24T00:39:05;101041.50;;;15.62;77.13
80798;BME280;70202;52.238;10.680;2023-06-24T00:40:05;101044.25;;;15.62;77.23
80798;BME280;70202;52.238;10.680;2023-06-24T00:41:07;101046.19;;;15.60;77.04
80798;BME280;70202;52.238;10.680;2023-06-24T00:42:08;101049.91;;;15.59;77.38
80798;BME280;70202;52.238;10.680;2023-06-24T00:43:09;101047.16;;;15.59;77.11
80798;BME280;70202;52.238;10.680;2023-06-24T00:44:10;101050.84;;;15.58;76.92
80798;BME280;70202;52.238;10.680;2023-06-24T00:45:10;101049.97;;;15.58;77.08
80798;BME280;70202;52.238;10.680;2023-06-24T00:46:11;101056.41;;;15.57;77.52
80798;BME280;70202;52.238;10.680;2023-06-24T00:47:14;101056.50;;;15.55;76.79
80798;BME280;70202;52.238;10.680;2023-06-24T00:48:14;101056.50;;;15.55;77.12
80798;BME280;70202;52.238;10.680;2023-06-24T00:49:14;101060.19;;;15.54;77.25
80798;BME280;70202;52.238;10.680;2023-06-24T00:50:16;101053.81;;;15.54;76.95
80798;BME280;70202;52.238;10.680;2023-06-24T00:51:16;101054.78;;;15.53;77.69
80798;BME280;70202;52.238;10.680;2023-06-24T00:52:17;101062.13;;;15.52;76.98
80798;BME280;70202;52.238;10.680;2023-06-24T00:53:18;101055.75;;;15.52;77.14
80798;BME280;70202;52.238;10.680;2023-06-24T00:54:18;101056.72;;;15.50;76.88
80798;BME280;70202;52.238;10.680;2023-06-24T00:55:19;101056.72;;;15.50;77.36
80798;BME280;70202;52.238;10.680;2023-06-24T00:56:29;101055.00;;;15.48;77.08
80798;BME280;70202;52.238;10.680;2023-06-24T00:57:30;101050.47;;;15.47;77.12
80798;BME280;70202;52.238;10.680;2023-06-24T00:58:32;101044.38;;;15.40;76.70
80798;BME280;70202;52.238;10.680;2023-06-24T00:59:34;101052.47;;;15.43;76.98
80798;BME280;70202;52.238;10.680;2023-06-24T01:00:35;101051.59;;;15.43;77.26
80798;BME280;70202;52.238;10.680;2023-06-24T01:01:36;101055.28;;;15.42;76.94
80798;BME280;70202;52.238;10.680;2023-06-24T01:02:37;101053.59;;;15.39;76.73
80798;BME280;70202;52.238;10.680;2023-06-24T01:03:38;101052.75;;;15.37;76.59
80798;BME280;70202;52.238;10.680;2023-06-24T01:04:39;101058.31;;;15.36;76.78
80798;BME280;70202;52.238;10.680;2023-06-24T01:05:40;101052.06;;;15.32;76.73
80798;BME280;70202;52.238;10.680;2023-06-24T01:06:41;101051.19;;;15.32;76.61
80798;BME280;70202;52.238;10.680;2023-06-24T01:07:45;101053.13;;;15.30;76.58
80798;BME280;70202;52.238;10.680;2023-06-24T01:08:56;101056.81;;;15.29;76.81
80798;BME280;70202;52.238;10.680;2023-06-24T01:09:57;101054.16;;;15.27;76.72
80798;BME280;70202;52.238;10.680;2023-06-24T01:10:57;101066.09;;;15.26;77.05
80798;BME280;70202;52.238;10.680;2023-06-24T01:11:58;101059.78;;;15.24;76.93
80798;BME280;70202;52.238;10.680;2023-06-24T01:12:58;101063.50;;;15.23;77.05
80798;BME280;70202;52.238;10.680;2023-06-24T01:13:59;101063.56;;;15.21;76.86
80798;BME280;70202;52.238;10.680;2023-06-24T01:14:59;101060.88;;;15.20;76.64
80798;BME280;70202;52.238;10.680;2023-06-24T01:16:05;101070.06;;;15.19;76.67
80798;BME280;70202;52.238;10.680;2023-06-24T01:17:21;101072.91;;;15.17;76.84
80798;BME280;70202;52.238;10.680;2023-06-24T01:20:08;101080.38;;;15.14;76.72
80798;BME280;70202;52.238;10.680;2023-06-24T01:24:09;101078.81;;;15.08;76.79
80798;BME280;70202;52.238;10.680;2023-06-24T01:32:45;101066.75;;;14.92;77.37
80798;BME280;70202;52.238;10.680;2023-06-24T01:33:58;101047.09;;;14.81;77.02
80798;BME280;70202;52.238;10.680;2023-06-24T01:35:23;101069.53;;;14.90;77.42
80798;BME280;70202;52.238;10.680;2023-06-24T01:36:28;101068.66;;;14.90;77.61
80798;BME280;70202;52.238;10.680;2023-06-24T01:37:42;101064.13;;;14.89;77.61
80798;BME280;70202;52.238;10.680;2023-06-24T01:38:49;101071.47;;;14.88;77.71
80798;BME280;70202;52.238;10.680;2023-06-24T01:41:06;101065.97;;;14.88;77.75
80798;BME280;70202;52.238;10.680;2023-06-24T01:42:09;101050.69;;;14.83;77.95
80798;BME280;70202;52.238;10.680;2023-06-24T01:43:11;101062.34;;;14.88;78.00
80798;BME280;70202;52.238;10.680;2023-06-24T01:44:15;101057.84;;;14.87;77.61
80798;BME280;70202;52.238;10.680;2023-06-24T01:45:20;101055.13;;;14.85;77.81
80798;BME280;70202;52.238;10.680;2023-06-24T01:46:22;101067.88;;;14.86;78.00
80798;BME280;70202;52.238;10.680;2023-06-24T01:47:26;101065.13;;;14.86;78.05
80798;BME280;70202;52.238;10.680;2023-06-24T01:48:28;101040.19;;;14.72;78.03
80798;BME280;70202;52.238;10.680;2023-06-24T01:49:31;101061.50;;;14.86;77.91
80798;BME280;70202;52.238;10.680;2023-06-24T01:50:35;101064.53;;;14.80;78.04
80798;BME280;70202;52.238;10.680;2023-06-24T01:51:37;101061.59;;;14.84;78.11
80798;BME280;70202;52.238;10.680;2023-06-24T01:52:41;101073.44;;;14.85;77.88
80798;BME280;70202;52.238;10.680;2023-06-24T01:53:49;101067.06;;;14.84;77.84
80798;BME280;70202;52.238;10.680;2023-06-24T01:54:51;101070.78;;;14.83;77.71
80798;BME280;70202;52.238;10.680;2023-06-24T01:55:54;101073.56;;;14.82;78.03
80798;BME280;70202;52.238;10.680;2023-06-24T01:56:57;101065.50;;;14.79;78.17
80798;BME280;70202;52.238;10.680;2023-06-24T01:57:59;101079.13;;;14.80;78.03
80798;BME280;70202;52.238;10.680;2023-06-24T01:59:03;101071.00;;;14.79;78.06
80798;BME280;70202;52.238;10.680;2023-06-24T02:00:05;101074.66;;;14.78;77.83
80798;BME280;70202;52.238;10.680;2023-06-24T02:01:07;101069.19;;;14.78;77.74
80798;BME280;70202;52.238;10.680;2023-06-24T02:02:08;101070.16;;;14.77;78.11
80798;BME280;70202;52.238;10.680;2023-06-24T02:03:09;101064.78;;;14.73;78.25
80798;BME280;70202;52.238;10.680;2023-06-24T02:04:10;101057.59;;;14.71;77.94
80798;BME280;70202;52.238;10.680;2023-06-24T02:05:11;101076.59;;;14.75;77.89
80798;BME280;70202;52.238;10.680;2023-06-24T02:06:13;101044.56;;;14.56;77.96
80798;BME280;70202;52.238;10.680;2023-06-24T02:07:14;101066.66;;;14.73;77.90
80798;BME280;70202;52.238;10.680;2023-06-24T02:08:16;101066.72;;;14.71;78.13
80798;BME280;70202;52.238;10.680;2023-06-24T02:09:18;101067.69;;;14.70;78.23
80798;BME280;70202;52.238;10.680;2023-06-24T02:10:20;101071.38;;;14.69;78.29
80798;BME280;70202;52.238;10.680;2023-06-24T02:11:23;101065.88;;;14.69;78.32
80798;BME280;70202;52.238;10.680;2023-06-24T02:12:25;101065.00;;;14.69;77.86
80798;BME280;70202;52.238;10.680;2023-06-24T02:13:27;101056.09;;;14.64;78.20
80798;BME280;70202;52.238;10.680;2023-06-24T02:14:32;101061.50;;;14.65;78.26
80798;BME280;70202;52.238;10.680;2023-06-24T02:15:34;101066.09;;;14.65;78.21
80798;BME280;70202;52.238;10.680;2023-06-24T02:16:36;101064.31;;;14.64;78.36
80798;BME280;70202;52.238;10.680;2023-06-24T02:17:42;101062.53;;;14.63;78.29
80798;BME280;70202;52.238;10.680;2023-06-24T02:18:43;101052.53;;;14.62;78.32
80798;BME280;70202;52.238;10.680;2023-06-24T02:19:44;101058.06;;;14.60;78.51
80798;BME280;70202;52.238;10.680;2023-06-24T02:20:46;101055.31;;;14.60;78.40
80798;BME280;70202;52.238;10.680;2023-06-24T02:21:48;101051.88;;;14.55;78.25
80798;BME280;70202;52.238;10.680;2023-06-24T02:22:51;101037.50;;;14.50;78.62
80798;BME280;70202;52.238;10.680;2023-06-24T02:23:53;101048.13;;;14.58;78.44
80798;BME280;70202;52.238;10.680;2023-06-24T02:24:54;101053.63;;;14.58;78.27
80798;BME280;70202;52.238;10.680;2023-06-24T02:25:55;101050.00;;;14.57;78.73
80798;BME280;70202;52.238;10.680;2023-06-24T02:26:58;101045.41;;;14.58;78.66
80798;BME280;70202;52.238;10.680;2023-06-24T02:27:59;101042.78;;;14.55;78.64
80798;BME280;70202;52.238;10.680;2023-06-24T02:29:00;101034.75;;;14.50;78.76
80798;BME280;70202;52.238;10.680;2023-06-24T02:30:01;101048.06;;;14.59;78.84
80798;BME280;70202;52.238;10.680;2023-06-24T02:31:02;101039.97;;;14.56;78.71
80798;BME280;70202;52.238;10.680;2023-06-24T02:32:03;101047.16;;;14.59;78.45
80798;BME280;70202;52.238;10.680;2023-06-24T02:33:03;101047.25;;;14.57;78.74
80798;BME280;70202;52.238;10.680;2023-06-24T02:34:04;101036.78;;;14.45;78.69
80798;BME280;70202;52.238;10.680;2023-06-24T02:35:05;101052.78;;;14.56;78.58
80798;BME280;70202;52.238;10.680;2023-06-24T02:36:06;101050.03;;;14.56;78.98
80798;BME280;70202;52.238;10.680;2023-06-24T02:37:06;101031.53;;;14.39;78.74
80798;BME280;70202;52.238;10.680;2023-06-24T02:38:07;101053.94;;;14.50;78.69
80798;BME280;70202;52.238;10.680;2023-06-24T02:39:08;101061.06;;;14.54;78.68
80798;BME280;70202;52.238;10.680;2023-06-24T02:40:09;101053.81;;;14.53;78.70
80798;BME280;70202;52.238;10.680;2023-06-24T02:41:10;101059.34;;;14.52;78.54
80798;BME280;70202;52.238;10.680;2023-06-24T02:42:11;101052.91;;;14.53;79.07
80798;BME280;70202;52.238;10.680;2023-06-24T02:43:11;101052.97;;;14.51;78.46
80798;BME280;70202;52.238;10.680;2023-06-24T02:44:12;101015.78;;;14.23;78.96
80798;BME280;70202;52.238;10.680;2023-06-24T02:45:12;101056.69;;;14.50;78.72
80798;BME280;70202;52.238;10.680;2023-06-24T02:46:14;101053.06;;;14.48;78.58
80798;BME280;70202;52.238;10.680;2023-06-24T02:47:16;101056.69;;;14.50;78.67
80798;BME280;70202;52.238;10.680;2023-06-24T02:48:18;101030.72;;;14.37;78.46
80798;BME280;70202;52.238;10.680;2023-06-24T02:49:20;101044.28;;;14.40;78.55
80798;BME280;70202;52.238;10.680;2023-06-24T02:50:21;101057.66;;;14.47;78.84
80798;BME280;70202;52.238;10.680;2023-06-24T02:51:22;101042.50;;;14.39;nan
80798;BME280;70202;52.238;10.680;2023-06-24T02:52:23;101056.84;;;14.45;78.69
80798;BME280;70202;52.238;10.680;2023-06-24T02:53:24;101051.41;;;14.44;78.65
80798;BME280;70202;52.238;10.680;2023-06-24T02:54:25;101047.88;;;14.42;78.81
80798;BME280;70202;52.238;10.680;2023-06-24T02:55:26;101043.38;;;14.39;78.97
80798;BME280;70202;52.238;10.680;2023-06-24T02:56:27;101034.47;;;14.34;79.28
80798;BME280;70202;52.238;10.680;2023-06-24T02:57:28;101045.13;;;14.42;78.72
80798;BME280;70202;52.238;10.680;2023-06-24T02:58:28;101046.28;;;14.36;78.66
80798;BME280;70202;52.238;10.680;2023-06-24T02:59:31;101059.78;;;14.41;78.54
80798;BME280;70202;52.238;10.680;2023-06-24T03:00:32;101059.78;;;14.41;78.56
80798;BME280;70202;52.238;10.680;2023-06-24T03:01:36;101052.66;;;14.37;78.43
80798;BME280;70202;52.238;10.680;2023-06-24T03:02:39;101059.84;;;14.39;78.71
80798;BME280;70202;52.238;10.680;2023-06-24T03:03:41;101050.13;;;14.32;78.52
80798;BME280;70202;52.238;10.680;2023-06-24T03:04:41;101064.38;;;14.40;78.87
80798;BME280;70202;52.238;10.680;2023-06-24T03:05:42;101064.38;;;14.40;78.95
80798;BME280;70202;52.238;10.680;2023-06-24T03:06:45;101038.44;;;14.27;78.72
80798;BME280;70202;52.238;10.680;2023-06-24T03:07:46;101066.22;;;14.40;78.83
80798;BME280;70202;52.238;10.680;2023-06-24T03:08:47;101066.22;;;14.40;78.98
80798;BME280;70202;52.238;10.680;2023-06-24T03:09:48;101070.81;;;14.39;78.97
80798;BME280;70202;52.238;10.680;2023-06-24T03:10:48;101062.56;;;14.39;78.90
80798;BME280;70202;52.238;10.680;2023-06-24T03:11:49;101077.16;;;14.40;78.39
80798;BME280;70202;52.238;10.680;2023-06-24T03:12:50;101072.59;;;14.40;78.94
80798;BME280;70202;52.238;10.680;2023-06-24T03:13:50;101071.69;;;14.40;78.94
80798;BME280;70202;52.238;10.680;2023-06-24T03:14:51;101069.88;;;14.40;78.72
80798;BME280;70202;52.238;10.680;2023-06-24T03:15:51;101071.69;;;14.40;78.78
80798;BME280;70202;52.238;10.680;2023-06-24T03:16:52;101070.75;;;14.41;78.40
80798;BME280;70202;52.238;10.680;2023-06-24T03:17:52;101070.75;;;14.41;79.03
80798;BME280;70202;52.238;10.680;2023-06-24T03:18:52;101066.28;;;14.38;79.00
80798;BME280;70202;52.238;10.680;2023-06-24T03:19:53;101052.97;;;14.29;78.68
80798;BME280;70202;52.238;10.680;2023-06-24T03:20:53;101076.09;;;14.44;78.43
80798;BME280;70202;52.238;10.680;2023-06-24T03:21:54;101064.31;;;14.42;78.86
80798;BME280;70202;52.238;10.680;2023-06-24T03:22:54;101074.25;;;14.44;78.45
80798;BME280;70202;52.238;10.680;2023-06-24T03:23:56;101067.25;;;14.37;78.45
80798;BME280;70202;52.238;10.680;2023-06-24T03:24:58;101082.41;;;14.46;78.71
80798;BME280;70202;52.238;10.680;2023-06-24T03:25:59;101079.66;;;14.46;78.42
80798;BME280;70202;52.238;10.680;2023-06-24T03:26:59;101068.94;;;14.40;78.72
80798;BME280;70202;52.238;10.680;2023-06-24T03:28:00;101074.09;;;14.47;78.62
80798;BME280;70202;52.238;10.680;2023-06-24T03:29:01;101074.19;;;14.46;78.77
80798;BME280;70202;52.238;10.680;2023-06-24T03:30:01;101076.38;;;14.60;78.42
80798;BME280;70202;52.238;10.680;2023-06-24T03:31:01;101072.81;;;14.78;77.94
80798;BME280;70202;52.238;10.680;2023-06-24T03:32:02;101051.28;;;14.89;77.74
80798;BME280;70202;52.238;10.680;2023-06-24T03:33:03;101056.91;;;15.07;77.60
80798;BME280;70202;52.238;10.680;2023-06-24T03:34:03;101061.41;;;15.28;77.42
80798;BME280;70202;52.238;10.680;2023-06-24T03:35:03;101076.13;;;15.46;77.01
80798;BME280;70202;52.238;10.680;2023-06-24T03:36:05;101074.88;;;15.53;76.71
80798;BME280;70202;52.238;10.680;2023-06-24T03:37:05;101080.25;;;15.56;76.66
80798;BME280;70202;52.238;10.680;2023-06-24T03:38:05;101074.31;;;15.46;76.50
80798;BME280;70202;52.238;10.680;2023-06-24T03:39:06;101077.94;;;15.47;76.67
80798;BME280;70202;52.238;10.680;2023-06-24T03:40:07;101080.06;;;15.40;76.61
80798;BME280;70202;52.238;10.680;2023-06-24T03:41:08;101055.25;;;15.23;76.55
80798;BME280;70202;52.238;10.680;2023-06-24T03:42:09;101083.16;;;15.33;76.70
80798;BME280;70202;52.238;10.680;2023-06-24T03:43:09;101042.16;;;15.09;77.05
80798;BME280;70202;52.238;10.680;2023-06-24T03:44:10;101089.91;;;15.25;76.95
80798;BME280;70202;52.238;10.680;2023-06-24T03:45:10;101089.97;;;15.24;77.08
80798;BME280;70202;52.238;10.680;2023-06-24T03:46:11;101079.28;;;15.18;76.78
80798;BME280;70202;52.238;10.680;2023-06-24T03:47:11;101077.41;;;15.18;77.04
80798;BME280;70202;52.238;10.680;2023-06-24T03:48:12;101062.47;;;15.05;77.03
80798;BME280;70202;52.238;10.680;2023-06-24T03:49:13;101086.66;;;15.16;77.03
80798;BME280;70202;52.238;10.680;2023-06-24T03:50:13;101088.59;;;15.14;77.19
80798;BME280;70202;52.238;10.680;2023-06-24T03:51:13;101060.97;;;14.98;77.14
80798;BME280;70202;52.238;10.680;2023-06-24T03:52:14;101094.19;;;15.12;77.07
80798;BME280;70202;52.238;10.680;2023-06-24T03:53:14;101076.41;;;15.00;77.23
80798;BME280;70202;52.238;10.680;2023-06-24T03:54:15;101104.25;;;15.12;77.02
80798;BME280;70202;52.238;10.680;2023-06-24T03:55:15;101094.22;;;15.11;77.30
80798;BME280;70202;52.238;10.680;2023-06-24T03:56:15;101095.13;;;15.11;77.32
80798;BME280;70202;52.238;10.680;2023-06-24T03:57:16;101102.41;;;15.12;77.28
80798;BME280;70202;52.238;10.680;2023-06-24T03:58:16;101111.53;;;15.13;77.23
80798;BME280;70202;52.238;10.680;2023-06-24T03:59:17;101112.41;;;15.13;77.29
80798;BME280;70202;52.238;10.680;2023-06-24T04:00:17;101107.81;;;15.14;77.41
80798;BME280;70202;52.238;10.680;2023-06-24T04:01:20;101105.00;;;15.15;77.66
80798;BME280;70202;52.238;10.680;2023-06-24T04:02:21;101089.84;;;15.07;77.52
80798;BME280;70202;52.238;10.680;2023-06-24T04:03:23;101101.25;;;15.18;77.26
80798;BME280;70202;52.238;10.680;2023-06-24T04:04:26;101089.72;;;15.10;77.51
80798;BME280;70202;52.238;10.680;2023-06-24T04:05:26;101081.34;;;15.13;77.44
80798;BME280;70202;52.238;10.680;2023-06-24T04:06:27;101088.41;;;15.18;77.61
80798;BME280;70202;52.238;10.680;2023-06-24T04:07:27;101100.94;;;15.24;77.52
80798;BME280;70202;52.238;10.680;2023-06-24T04:08:27;101099.03;;;15.26;77.58
80798;BME280;70202;52.238;10.680;2023-06-24T04:09:29;101101.69;;;15.28;77.44
80798;BME280;70202;52.238;10.680;2023-06-24T04:10:29;101100.72;;;15.29;77.65
80798;BME280;70202;52.238;10.680;2023-06-24T04:11:30;101099.78;;;15.30;77.36
80798;BME280;70202;52.238;10.680;2023-06-24T04:12:30;101098.81;;;15.31;77.45
80798;BME280;70202;52.238;10.680;2023-06-24T04:13:30;101096.00;;;15.32;77.82
80798;BME280;70202;52.238;10.680;2023-06-24T04:14:31;101096.84;;;15.34;77.63
80798;BME280;70202;52.238;10.680;2023-06-24T04:15:31;101094.97;;;15.35;77.45
80798;BME280;70202;52.238;10.680;2023-06-24T04:16:32;101090.28;;;15.37;77.64
80798;BME280;70202;52.238;10.680;2023-06-24T04:17:32;101104.84;;;15.39;77.77
80798;BME280;70202;52.238;10.680;2023-06-24T04:18:33;101095.78;;;15.37;77.64
80798;BME280;70202;52.238;10.680;2023-06-24T04:19:34;101099.28;;;15.40;77.59
80798;BME280;70202;52.238;10.680;2023-06-24T04:20:34;101076.03;;;15.29;77.46
80798;BME280;70202;52.238;10.680;2023-06-24T04:21:34;101101.00;;;15.43;77.84
80798;BME280;70202;52.238;10.680;2023-06-24T04:22:39;101099.06;;;15.45;77.68
80798;BME280;70202;52.238;10.680;2023-06-24T04:23:40;101095.44;;;15.44;77.62
80798;BME280;70202;52.238;10.680;2023-06-24T04:24:40;101100.78;;;15.47;77.25
80798;BME280;70202;52.238;10.680;2023-06-24T04:25:41;101099.81;;;15.48;77.83
80798;BME280;70202;52.238;10.680;2023-06-24T04:26:42;101099.75;;;15.50;77.90
80798;BME280;70202;52.238;10.680;2023-06-24T04:27:42;101096.88;;;15.53;77.80
80798;BME280;70202;52.238;10.680;2023-06-24T04:28:43;101098.59;;;15.56;77.77
80798;BME280;70202;52.238;10.680;2023-06-24T04:29:43;101089.38;;;15.57;77.90
80798;BME280;70202;52.238;10.680;2023-06-24T04:30:43;101094.78;;;15.58;77.56
80798;BME280;70202;52.238;10.680;2023-06-24T04:31:44;101098.38;;;15.60;77.89
80798;BME280;70202;52.238;10.680;2023-06-24T04:32:44;101100.06;;;15.63;77.80
80798;BME280;70202;52.238;10.680;2023-06-24T04:33:44;101105.53;;;15.64;77.55
80798;BME280;70202;52.238;10.680;2023-06-24T04:34:45;101101.72;;;15.67;77.87
80798;BME280;70202;52.238;10.680;2023-06-24T04:35:46;101101.59;;;15.70;77.64
80798;BME280;70202;52.238;10.680;2023-06-24T04:36:46;101109.69;;;15.73;77.21
80798;BME280;70202;52.238;10.680;2023-06-24T04:37:47;101103.16;;;15.75;77.49
80798;BME280;70202;52.238;10.680;2023-06-24T04:38:50;101113.13;;;15.78;77.70
80798;BME280;70202;52.238;10.680;2023-06-24T04:39:50;101106.59;;;15.81;77.64
80798;BME280;70202;52.238;10.680;2023-06-24T04:40:51;101106.44;;;15.84;77.51
80798;BME280;70202;52.238;10.680;2023-06-24T04:41:51;101100.94;;;15.84;77.35
80798;BME280;70202;52.238;10.680;2023-06-24T04:42:52;101112.63;;;15.89;77.58
80798;BME280;70202;52.238;10.680;2023-06-24T04:43:52;101108.81;;;15.91;77.37
80798;BME280;70202;52.238;10.680;2023-06-24T04:44:52;101104.19;;;15.92;77.35
80798;BME280;70202;52.238;10.680;2023-06-24T04:45:53;101109.66;;;15.93;77.27
80798;BME280;70202;52.238;10.680;2023-06-24T04:46:55;101110.38;;;15.97;77.45
80798;BME280;70202;52.238;10.680;2023-06-24T04:47:55;101112.09;;;15.99;77.36
80798;BME280;70202;52.238;10.680;2023-06-24T04:48:55;101111.06;;;16.02;77.29
80798;BME280;70202;52.238;10.680;2023-06-24T04:49:56;101101.31;;;15.95;77.26
80798;BME280;70202;52.238;10.680;2023-06-24T04:50:56;101110.88;;;16.05;77.51
80798;BME280;70202;52.238;10.680;2023-06-24T04:52:02;101114.31;;;16.10;77.59
80798;BME280;70202;52.238;10.680;2023-06-24T04:53:02;101110.59;;;16.11;77.43
80798;BME280;70202;52.238;10.680;2023-06-24T04:54:03;101106.78;;;16.14;77.41
80798;BME280;70202;52.238;10.680;2023-06-24T04:55:04;101107.63;;;16.16;77.30
80798;BME280;70202;52.238;10.680;2023-06-24T04:56:04;101110.22;;;16.19;77.41
80798;BME280;70202;52.238;10.680;2023-06-24T04:57:09;101118.31;;;16.22;77.33
80798;BME280;70202;52.238;10.680;2023-06-24T04:58:22;101111.88;;;16.23;77.23
80798;BME280;70202;52.238;10.680;2023-06-24T04:59:23;101117.19;;;16.26;77.29
80798;BME280;70202;52.238;10.680;2023-06-24T05:00:23;101112.44;;;16.30;77.37
80798;BME280;70202;52.238;10.680;2023-06-24T05:01:24;101103.53;;;16.24;77.10
80798;BME280;70202;52.238;10.680;2023-06-24T05:02:24;101113.09;;;16.35;77.14
80798;BME280;70202;52.238;10.680;2023-06-24T05:03:25;101114.81;;;16.37;77.35
80798;BME280;70202;52.238;10.680;2023-06-24T05:04:25;101109.16;;;16.40;76.92
80798;BME280;70202;52.238;10.680;2023-06-24T05:05:26;101111.75;;;16.43;77.00
80798;BME280;70202;52.238;10.680;2023-06-24T05:06:27;101113.38;;;16.47;76.84
80798;BME280;70202;52.238;10.680;2023-06-24T05:07:27;101115.00;;;16.52;76.92
80798;BME280;70202;52.238;10.680;2023-06-24T05:08:28;101104.22;;;16.47;76.63
80798;BME280;70202;52.238;10.680;2023-06-24T05:09:28;101112.00;;;16.56;76.64
80798;BME280;70202;52.238;10.680;2023-06-24T05:10:28;101126.59;;;16.58;76.53
80798;BME280;70202;52.238;10.680;2023-06-24T05:11:29;101119.09;;;16.62;76.52
80798;BME280;70202;52.238;10.680;2023-06-24T05:12:29;101120.75;;;16.64;76.70
80798;BME280;70202;52.238;10.680;2023-06-24T05:13:29;101125.16;;;16.68;76.54
80798;BME280;70202;52.238;10.680;2023-06-24T05:14:30;101130.44;;;16.73;76.65
80798;BME280;70202;52.238;10.680;2023-06-24T05:15:30;101130.19;;;16.78;76.35
80798;BME280;70202;52.238;10.680;2023-06-24T05:16:31;101130.88;;;16.83;76.35
80798;BME280;70202;52.238;10.680;2023-06-24T05:17:31;101134.34;;;16.86;76.37
80798;BME280;70202;52.238;10.680;2023-06-24T05:18:31;101133.22;;;16.90;76.35
80798;BME280;70202;52.238;10.680;2023-06-24T05:19:32;101130.16;;;16.96;76.26
80798;BME280;70202;52.238;10.680;2023-06-24T05:20:32;101135.19;;;17.06;76.20
80798;BME280;70202;52.238;10.680;2023-06-24T05:21:33;101134.94;;;17.10;76.14
80798;BME280;70202;52.238;10.680;2023-06-24T05:22:33;101136.47;;;17.16;76.01
80798;BME280;70202;52.238;10.680;2023-06-24T05:23:33;101132.56;;;17.20;75.97
80798;BME280;70202;52.238;10.680;2023-06-24T05:24:34;101134.13;;;17.26;75.55
80798;BME280;70202;52.238;10.680;2023-06-24T05:25:34;101142.16;;;17.30;75.74
80798;BME280;70202;52.238;10.680;2023-06-24T05:26:35;101139.25;;;17.33;75.54
80798;BME280;70202;52.238;10.680;2023-06-24T05:27:35;101131.78;;;17.35;75.35
80798;BME280;70202;52.238;10.680;2023-06-24T05:28:36;101133.47;;;17.38;75.28
80798;BME280;70202;52.238;10.680;2023-06-24T05:29:36;101125.22;;;17.38;75.17
80798;BME280;70202;52.238;10.680;2023-06-24T05:30:37;101129.59;;;17.42;75.20